createdAt,value
2023-04-09T00:00:49.598Z,96.020508
2023-04-09T00:01:59.298Z,96.020508
2023-04-09T00:03:08.052Z,95.916748
2023-04-09T00:04:15.688Z,96.124268
2023-04-09T00:05:24.318Z,96.228027
2023-04-09T00:06:33.977Z,96.331787
2023-04-09T00:07:44.441Z,96.331787
2023-04-09T00:08:52.491Z,96.435547
2023-04-09T00:10:01.010Z,96.539307
2023-04-09T00:11:10.680Z,96.539307
2023-04-09T00:12:20.371Z,96.643066
2023-04-09T00:13:38.351Z,96.850586
2023-04-09T00:14:38.763Z,97.058105
2023-04-09T00:15:48.437Z,96.954346
2023-04-09T00:16:58.062Z,97.009277
2023-04-09T00:18:06.770Z,96.905518
2023-04-09T00:19:17.516Z,97.009277
2023-04-09T00:20:26.218Z,96.905518
2023-04-09T00:21:35.857Z,96.905518
2023-04-09T00:22:43.514Z,96.801758
2023-04-09T00:23:52.236Z,96.801758
2023-04-09T00:25:01.921Z,96.594238
2023-04-09T00:26:11.561Z,96.392822
2023-04-09T00:27:21.228Z,96.185303
2023-04-09T00:28:29.915Z,96.081543
2023-04-09T00:29:38.573Z,95.977783
2023-04-09T00:30:48.240Z,96.081543
2023-04-09T00:31:56.002Z,96.081543
2023-04-09T00:33:04.581Z,96.185303
2023-04-09T00:34:14.244Z,96.289062
2023-04-09T00:35:22.912Z,96.289062
2023-04-09T00:36:31.581Z,96.289062
2023-04-09T00:37:40.228Z,96.392822
2023-04-09T00:38:49.014Z,96.392822
2023-04-09T00:39:58.657Z,96.490479
2023-04-09T00:41:07.308Z,96.697998
2023-04-09T00:42:14.962Z,96.905518
2023-04-09T00:43:24.641Z,96.801758
2023-04-09T00:44:33.335Z,96.905518
2023-04-09T00:45:42.076Z,96.905518
2023-04-09T00:46:50.732Z,96.905518
2023-04-09T00:47:59.520Z,96.905518
2023-04-09T00:49:09.132Z,97.009277
2023-04-09T00:50:17.905Z,97.009277
2023-04-09T00:51:25.569Z,97.009277
2023-04-09T00:52:35.247Z,97.009277
2023-04-09T00:53:44.934Z,97.009277
2023-04-09T00:54:53.592Z,96.966553
2023-04-09T00:56:02.283Z,96.862793
2023-04-09T00:57:10.927Z,96.862793
2023-04-09T00:58:20.614Z,96.862793
2023-04-09T00:59:28.297Z,96.759033
2023-04-09T01:00:36.015Z,96.862793
2023-04-09T01:01:46.668Z,96.862793
2023-04-09T01:02:55.371Z,96.759033
2023-04-09T01:04:04.090Z,96.862793
2023-04-09T01:05:13.716Z,96.862793
2023-04-09T01:06:22.431Z,96.862793
2023-04-09T01:07:32.090Z,96.759033
2023-04-09T01:08:41.762Z,96.551514
2023-04-09T01:09:50.449Z,96.551514
2023-04-09T01:11:00.173Z,96.551514
2023-04-09T01:12:09.845Z,96.551514
2023-04-09T01:13:18.513Z,96.447754
2023-04-09T01:14:27.206Z,96.343994
2023-04-09T01:15:36.857Z,96.240234
2023-04-09T01:16:46.533Z,96.240234
2023-04-09T01:17:54.169Z,96.240234
2023-04-09T01:19:03.882Z,96.343994
2023-04-09T01:20:13.581Z,96.343994
2023-04-09T01:21:22.204Z,96.343994
2023-04-09T01:22:31.902Z,96.240234
2023-04-09T01:23:41.532Z,96.240234
2023-04-09T01:24:51.254Z,96.136475
2023-04-09T01:26:00.934Z,96.136475
2023-04-09T01:27:10.587Z,96.136475
2023-04-09T01:28:18.251Z,96.136475
2023-04-09T01:29:27.937Z,96.240234
2023-04-09T01:30:36.665Z,96.240234
2023-04-09T01:31:46.292Z,96.240234
2023-04-09T01:32:54.957Z,96.343994
2023-04-09T01:34:02.658Z,96.343994
2023-04-09T01:35:12.389Z,96.343994
2023-04-09T01:36:20.132Z,96.343994
2023-04-09T01:37:28.755Z,96.447754
2023-04-09T01:38:38.417Z,96.343994
2023-04-09T01:39:47.131Z,96.240234
2023-04-09T01:40:55.803Z,96.343994
2023-04-09T01:42:05.476Z,96.343994
2023-04-09T01:43:14.142Z,96.343994
2023-04-09T01:44:23.829Z,96.343994
2023-04-09T01:45:31.488Z,96.240234
2023-04-09T01:46:40.147Z,96.136475
2023-04-09T01:47:49.900Z,96.136475
2023-04-09T01:48:58.468Z,96.136475
2023-04-09T01:50:08.224Z,96.136475
2023-04-09T01:51:16.892Z,96.240234
2023-04-09T01:52:26.586Z,96.240234
2023-04-09T01:53:36.222Z,96.240234
2023-04-09T01:54:43.906Z,96.240234
2023-04-09T01:55:52.569Z,96.240234
2023-04-09T01:57:02.288Z,96.240234
2023-04-09T01:58:10.950Z,96.240234
2023-04-09T01:59:19.586Z,96.343994
2023-04-09T02:00:29.265Z,96.343994
2023-04-09T02:01:37.097Z,96.240234
2023-04-09T02:02:45.891Z,96.136475
2023-04-09T02:03:55.407Z,96.032715
2023-04-09T02:05:03.984Z,96.032715
2023-04-09T02:06:13.635Z,95.935059
2023-04-09T02:07:22.284Z,95.935059
2023-04-09T02:08:31.956Z,95.935059
2023-04-09T02:09:42.573Z,95.935059
2023-04-09T02:10:51.328Z,95.831299
2023-04-09T02:11:59.004Z,95.727539
2023-04-09T02:13:07.649Z,95.727539
2023-04-09T02:14:17.331Z,95.727539
2023-04-09T02:15:27.040Z,95.727539
2023-04-09T02:16:36.704Z,95.727539
2023-04-09T02:17:45.396Z,95.727539
2023-04-09T02:18:55.055Z,95.727539
2023-04-09T02:20:02.783Z,95.727539
2023-04-09T02:21:10.404Z,95.727539
2023-04-09T02:22:20.085Z,95.623779
2023-04-09T02:23:29.737Z,95.727539
2023-04-09T02:24:38.437Z,95.727539
2023-04-09T02:25:48.160Z,95.831299
2023-04-09T02:26:56.801Z,95.935059
2023-04-09T02:28:06.465Z,95.935059
2023-04-09T02:29:15.136Z,96.032715
2023-04-09T02:30:24.296Z,95.935059
2023-04-09T02:31:33.961Z,95.935059
2023-04-09T02:32:43.656Z,95.935059
2023-04-09T02:33:53.362Z,95.935059
2023-04-09T02:35:01.056Z,96.136475
2023-04-09T02:36:10.739Z,96.136475
2023-04-09T02:37:19.402Z,96.136475
2023-04-09T02:38:28.094Z,96.032715
2023-04-09T02:39:36.749Z,95.935059
2023-04-09T02:40:46.465Z,95.935059
2023-04-09T02:41:55.098Z,95.727539
2023-04-09T02:43:03.763Z,95.831299
2023-04-09T02:44:12.428Z,95.831299
2023-04-09T02:45:21.112Z,96.032715
2023-04-09T02:46:30.842Z,96.136475
2023-04-09T02:47:39.476Z,96.032715
2023-04-09T02:48:48.186Z,95.935059
2023-04-09T02:49:57.832Z,95.831299
2023-04-09T02:51:07.513Z,95.727539
2023-04-09T02:52:17.202Z,95.727539
2023-04-09T02:53:26.875Z,95.727539
2023-04-09T02:54:35.536Z,95.831299
2023-04-09T02:55:45.267Z,95.831299
2023-04-09T02:56:52.948Z,95.935059
2023-04-09T02:58:00.636Z,96.032715
2023-04-09T02:59:10.256Z,96.136475
2023-04-09T03:00:19.920Z,96.136475
2023-04-09T03:01:29.615Z,96.240234
2023-04-09T03:02:39.304Z,96.343994
2023-04-09T03:03:47.948Z,96.343994
2023-04-09T03:04:57.566Z,96.392822
2023-04-09T03:06:05.294Z,96.490479
2023-04-09T03:07:12.944Z,96.801758
2023-04-09T03:08:22.717Z,96.905518
2023-04-09T03:09:31.388Z,96.905518
2023-04-09T03:10:39.006Z,97.058105
2023-04-09T03:11:47.736Z,97.259521
2023-04-09T03:12:57.453Z,97.570801
2023-04-09T03:14:07.090Z,97.77832
2023-04-09T03:15:15.735Z,97.88208
2023-04-09T03:16:25.422Z,97.77832
2023-04-09T03:17:35.172Z,97.77832
2023-04-09T03:18:44.852Z,97.631836
2023-04-09T03:19:53.507Z,97.528076
2023-04-09T03:21:02.228Z,97.424316
2023-04-09T03:22:11.873Z,97.424316
2023-04-09T03:23:21.520Z,97.528076
2023-04-09T03:24:29.168Z,97.467041
2023-04-09T03:25:38.879Z,97.570801
2023-04-09T03:26:48.622Z,97.674561
2023-04-09T03:27:57.270Z,97.674561
2023-04-09T03:29:05.943Z,97.77832
2023-04-09T03:30:15.587Z,97.77832
2023-04-09T03:31:24.297Z,97.88208
2023-04-09T03:32:33.910Z,97.88208
2023-04-09T03:33:41.551Z,98.193359
2023-04-09T03:34:50.250Z,98.0896
2023-04-09T03:35:58.924Z,98.132324
2023-04-09T03:37:07.608Z,98.034668
2023-04-09T03:38:16.443Z,98.034668
2023-04-09T03:39:25.367Z,98.034668
2023-04-09T03:40:35.096Z,97.930908
2023-04-09T03:41:44.781Z,97.930908
2023-04-09T03:42:52.466Z,97.723389
2023-04-09T03:44:02.215Z,97.723389
2023-04-09T03:45:11.893Z,97.619629
2023-04-09T03:46:21.599Z,97.558594
2023-04-09T03:47:30.272Z,97.454834
2023-04-09T03:48:39.919Z,97.351074
2023-04-09T03:49:49.567Z,97.143555
2023-04-09T03:50:59.252Z,97.088623
2023-04-09T03:52:07.008Z,97.088623
2023-04-09T03:53:16.670Z,97.088623
2023-04-09T03:54:26.350Z,97.131348
2023-04-09T03:55:36.026Z,97.131348
2023-04-09T03:56:45.733Z,97.235107
2023-04-09T03:57:54.404Z,97.338867
2023-04-09T03:59:04.067Z,97.442627
2023-04-09T04:00:12.763Z,97.650146
2023-04-09T04:01:21.614Z,97.900391
2023-04-09T04:02:31.332Z,97.900391
2023-04-09T04:03:41.083Z,98.00415
2023-04-09T04:04:49.638Z,98.10791
2023-04-09T04:05:58.248Z,98.419189
2023-04-09T04:07:07.019Z,98.522949
2023-04-09T04:08:16.663Z,98.834229
2023-04-09T04:09:24.356Z,98.730469
2023-04-09T04:10:32.005Z,98.730469
2023-04-09T04:11:42.907Z,98.937988
2023-04-09T04:12:51.670Z,99.249268
2023-04-09T04:14:00.345Z,99.456787
2023-04-09T04:15:08.993Z,99.353027
2023-04-09T04:16:17.658Z,99.249268
2023-04-09T04:17:27.413Z,99.145508
2023-04-09T04:18:37.003Z,99.041748
2023-04-09T04:19:45.694Z,98.937988
2023-04-09T04:20:55.345Z,99.041748
2023-04-09T04:22:04.018Z,99.353027
2023-04-09T04:23:12.684Z,99.456787
2023-04-09T04:24:21.347Z,99.456787
2023-04-09T04:25:30.008Z,99.560547
2023-04-09T04:26:39.677Z,99.560547
2023-04-09T04:27:47.385Z,99.664307
2023-04-09T04:28:57.039Z,99.664307
2023-04-09T04:30:05.693Z,99.560547
2023-04-09T04:31:14.379Z,99.560547
2023-04-09T04:32:23.076Z,99.517822
2023-04-09T04:33:32.726Z,99.664307
2023-04-09T04:34:41.368Z,99.615479
2023-04-09T04:35:50.063Z,99.517822
2023-04-09T04:36:59.728Z,99.517822
2023-04-09T04:38:09.413Z,99.414062
2023-04-09T04:39:18.089Z,99.414062
2023-04-09T04:40:26.749Z,99.414062
2023-04-09T04:41:35.480Z,99.517822
2023-04-09T04:42:45.225Z,99.517822
2023-04-09T04:43:54.856Z,99.517822
2023-04-09T04:45:04.526Z,99.517822
2023-04-09T04:46:14.256Z,99.517822
2023-04-09T04:47:22.890Z,99.517822
2023-04-09T04:48:32.627Z,99.517822
2023-04-09T04:49:41.339Z,99.206543
2023-04-09T04:50:49.970Z,99.456787
2023-04-09T04:51:59.635Z,99.664307
2023-04-09T04:53:07.364Z,99.664307
2023-04-09T04:54:16.037Z,99.822998
2023-04-09T04:55:25.690Z,99.822998
2023-04-09T04:56:34.360Z,99.719238
2023-04-09T04:57:43.054Z,99.719238
2023-04-09T04:58:51.905Z,99.517822
2023-04-09T05:00:00.381Z,99.517822
2023-04-09T05:01:10.123Z,99.414062
2023-04-09T05:02:19.964Z,99.206543
2023-04-09T05:03:29.460Z,99.206543
2023-04-09T05:04:39.404Z,99.102783
2023-04-09T05:05:49.089Z,98.999023
2023-04-09T05:06:58.717Z,98.999023
2023-04-09T05:08:07.394Z,99.145508
2023-04-09T05:09:16.049Z,99.353027
2023-04-09T05:10:26.684Z,99.456787
2023-04-09T05:11:36.352Z,99.456787
2023-04-09T05:12:45.144Z,99.456787
2023-04-09T05:13:54.749Z,99.560547
2023-04-09T05:15:04.436Z,99.353027
2023-04-09T05:16:14.145Z,99.249268
2023-04-09T05:17:23.826Z,99.041748
2023-04-09T05:18:32.673Z,98.937988
2023-04-09T05:19:42.433Z,98.834229
2023-04-09T05:20:50.096Z,98.986816
2023-04-09T05:21:58.780Z,99.145508
2023-04-09T05:23:08.444Z,99.456787
2023-04-09T05:24:17.070Z,99.560547
2023-04-09T05:25:25.773Z,99.664307
2023-04-09T05:26:35.414Z,99.768066
2023-04-09T05:27:44.089Z,99.560547
2023-04-09T05:28:53.918Z,99.560547
2023-04-09T05:30:01.478Z,99.517822
2023-04-09T05:31:10.151Z,99.719238
2023-04-09T05:32:19.832Z,99.719238
2023-04-09T05:33:28.518Z,99.719238
2023-04-09T05:34:37.171Z,99.676514
2023-04-09T05:35:46.852Z,99.676514
2023-04-09T05:36:56.487Z,99.676514
2023-04-09T05:38:06.217Z,99.523926
2023-04-09T05:39:15.025Z,99.32251
2023-04-09T05:40:25.704Z,99.066162
2023-04-09T05:41:35.364Z,98.651123
2023-04-09T05:42:44.050Z,98.339844
2023-04-09T05:43:53.086Z,98.034668
2023-04-09T05:45:01.479Z,97.30835
2023-04-09T05:46:11.139Z,96.936035
2023-04-09T05:47:20.815Z,97.10083
2023-04-09T05:48:29.452Z,97.30835
2023-04-09T05:49:38.117Z,97.30835
2023-04-09T05:50:54.316Z,97.155762
2023-04-09T05:51:57.399Z,96.582031
2023-04-09T05:53:06.077Z,96.582031
2023-04-09T05:54:15.793Z,96.270752
2023-04-09T05:55:24.423Z,96.374512
2023-04-09T05:56:33.088Z,96.520996
2023-04-09T05:57:40.781Z,96.685791
2023-04-09T05:58:48.461Z,96.789551
2023-04-09T05:59:58.117Z,96.936035
2023-04-09T06:01:06.889Z,97.454834
2023-04-09T06:02:15.807Z,97.766113
2023-04-09T06:03:24.573Z,97.973633
2023-04-09T06:04:34.268Z,98.077393
2023-04-09T06:05:43.905Z,98.077393
2023-04-09T06:06:52.569Z,98.077393
2023-04-09T06:08:01.225Z,98.608398
2023-04-09T06:09:10.962Z,98.297119
2023-04-09T06:10:19.657Z,97.98584
2023-04-09T06:11:28.296Z,97.424316
2023-04-09T06:12:36.926Z,97.113037
2023-04-09T06:13:46.590Z,97.174072
2023-04-09T06:14:56.255Z,97.070312
2023-04-09T06:16:04.960Z,96.612549
2023-04-09T06:17:14.602Z,96.09375
2023-04-09T06:18:24.270Z,95.532227
2023-04-09T06:19:32.928Z,95.220947
2023-04-09T06:20:42.582Z,94.604492
2023-04-09T06:21:52.282Z,94.189453
2023-04-09T06:23:00.923Z,93.780518
2023-04-09T06:24:10.639Z,93.676758
2023-04-09T06:25:20.314Z,93.780518
2023-04-09T06:26:30.029Z,93.676758
2023-04-09T06:27:38.662Z,93.780518
2023-04-09T06:28:47.330Z,93.927002
2023-04-09T06:29:56.982Z,94.030762
2023-04-09T06:31:06.669Z,93.878174
2023-04-09T06:32:15.356Z,93.780518
2023-04-09T06:33:26.146Z,93.927002
2023-04-09T06:34:35.832Z,93.981934
2023-04-09T06:35:44.490Z,93.823242
2023-04-09T06:36:54.305Z,93.615723
2023-04-09T06:38:04.001Z,93.469238
2023-04-09T06:39:12.683Z,93.261719
2023-04-09T06:40:23.296Z,93.218994
2023-04-09T06:41:32.076Z,93.115234
2023-04-09T06:42:41.711Z,92.86499
2023-04-09T06:43:51.583Z,92.86499
2023-04-09T06:45:00.217Z,92.29126
2023-04-09T06:46:08.960Z,91.97998
2023-04-09T06:47:17.602Z,91.729736
2023-04-09T06:48:26.327Z,91.937256
2023-04-09T06:49:35.999Z,92.41333
2023-04-09T06:50:43.724Z,91.790771
2023-04-09T06:51:51.311Z,91.339111
2023-04-09T06:53:01.085Z,89.996338
2023-04-09T06:54:09.749Z,89.544678
2023-04-09T06:55:18.413Z,89.501953
2023-04-09T06:56:27.165Z,89.355469
2023-04-09T06:57:36.064Z,88.842773
2023-04-09T06:58:46.748Z,87.976074
2023-04-09T06:59:55.469Z,86.083984
2023-04-09T07:01:04.119Z,84.643555
2023-04-09T07:02:13.850Z,83.990479
2023-04-09T07:03:22.481Z,83.825684
2023-04-09T07:04:32.442Z,83.886719
2023-04-09T07:05:40.793Z,83.233643
2023-04-09T07:06:50.457Z,82.470703
2023-04-09T07:08:00.122Z,82.434082
2023-04-09T07:09:09.797Z,81.817627
2023-04-09T07:10:18.450Z,80.688477
2023-04-09T07:11:28.137Z,80.450439
2023-04-09T07:12:36.772Z,80.206299
2023-04-09T07:13:46.465Z,79.345703
2023-04-09T07:14:56.118Z,78.222656
2023-04-09T07:16:04.787Z,78.527832
2023-04-09T07:17:13.428Z,78.735352
2023-04-09T07:18:22.100Z,78.735352
2023-04-09T07:19:30.772Z,78.69873
2023-04-09T07:20:40.441Z,78.082275
2023-04-09T07:21:49.079Z,77.734375
2023-04-09T07:22:57.733Z,77.905273
2023-04-09T07:24:06.399Z,77.288818
2023-04-09T07:25:15.082Z,76.538086
2023-04-09T07:26:24.743Z,74.768066
2023-04-09T07:27:33.411Z,75.653076
2023-04-09T07:28:42.066Z,75.653076
2023-04-09T07:29:51.793Z,75.616455
2023-04-09T07:31:00.430Z,74.865723
2023-04-09T07:32:10.121Z,73.535156
2023-04-09T07:33:18.814Z,74.255371
2023-04-09T07:34:28.582Z,72.30835
2023-04-09T07:35:38.396Z,71.5271
2023-04-09T07:36:47.170Z,71.728516
2023-04-09T07:37:55.840Z,71.936035
2023-04-09T07:39:05.505Z,72.137451
2023-04-09T07:40:14.224Z,72.857666
2023-04-09T07:41:23.859Z,73.028564
2023-04-09T07:42:33.511Z,72.412109
2023-04-09T07:43:42.211Z,71.42334
2023-04-09T07:44:51.949Z,72.241211
2023-04-09T07:46:00.774Z,71.728516
2023-04-09T07:47:10.318Z,71.728516
2023-04-09T07:48:20.010Z,72.039795
2023-04-09T07:49:28.703Z,71.31958
2023-04-09T07:50:38.456Z,71.42334
2023-04-09T07:51:47.137Z,70.806885
2023-04-09T07:52:56.793Z,71.282959
2023-04-09T07:54:06.471Z,71.179199
2023-04-09T07:55:14.575Z,71.386719
2023-04-09T07:56:22.805Z,71.5271
2023-04-09T07:57:32.455Z,71.386719
2023-04-09T07:58:41.094Z,72.039795
2023-04-09T07:59:49.782Z,71.087646
2023-04-09T08:00:58.431Z,68.804932
2023-04-09T08:02:08.159Z,70.611572
2023-04-09T08:03:18.886Z,68.304443
2023-04-09T08:04:27.507Z,68.066406
2023-04-09T08:05:36.064Z,67.321777
2023-04-09T08:06:45.717Z,66.912842
2023-04-09T08:07:55.441Z,67.29126
2023-04-09T08:09:04.110Z,67.053223
2023-04-09T08:10:12.841Z,66.516113
2023-04-09T08:11:21.500Z,66.278076
2023-04-09T08:12:31.200Z,66.485596
2023-04-09T08:13:39.847Z,64.520264
2023-04-09T08:14:48.527Z,63.50708
2023-04-09T08:15:58.264Z,64.013672
2023-04-09T08:17:06.909Z,63.812256
2023-04-09T08:18:15.590Z,63.000488
2023-04-09T08:19:25.238Z,64.147949
2023-04-09T08:20:33.931Z,64.959717
2023-04-09T08:21:43.629Z,64.147949
2023-04-09T08:22:51.320Z,65.161133
2023-04-09T08:24:00.965Z,63.909912
2023-04-09T08:25:09.625Z,61.761475
2023-04-09T08:26:18.359Z,62.841797
2023-04-09T08:27:26.985Z,63.928223
2023-04-09T08:28:36.662Z,64.581299
2023-04-09T08:29:45.316Z,62.518311
2023-04-09T08:30:55.098Z,61.834717
2023-04-09T08:32:05.022Z,63.592529
2023-04-09T08:33:15.791Z,63.897705
2023-04-09T08:34:25.538Z,64.508057
2023-04-09T08:35:35.247Z,64.379883
2023-04-09T08:36:43.983Z,63.189697
2023-04-09T08:37:53.618Z,64.611816
2023-04-09T08:39:02.337Z,63.391113
2023-04-09T08:40:09.999Z,63.696289
2023-04-09T08:41:19.801Z,64.94751
2023-04-09T08:42:28.436Z,64.642334
2023-04-09T08:43:53.078Z,64.978027
2023-04-09T08:44:48.778Z,63.916016
2023-04-09T08:45:57.481Z,66.027832
2023-04-09T08:47:07.123Z,65.722656
2023-04-09T08:48:14.860Z,66.101074
2023-04-09T08:49:24.437Z,65.966797
2023-04-09T08:50:34.184Z,65.661621
2023-04-09T08:51:42.837Z,65.527344
2023-04-09T08:52:52.579Z,64.031982
2023-04-09T08:54:03.884Z,64.94751
2023-04-09T08:55:09.897Z,64.538574
2023-04-09T08:56:19.552Z,65.386963
2023-04-09T08:57:28.210Z,65.185547
2023-04-09T08:58:36.851Z,65.216064
2023-04-09T08:59:46.581Z,64.807129
2023-04-09T09:00:55.275Z,64.733887
2023-04-09T09:02:05.008Z,64.630127
2023-04-09T09:03:13.612Z,65.649414
2023-04-09T09:04:22.311Z,65.142822
2023-04-09T09:05:30.905Z,64.221191
2023-04-09T09:06:38.608Z,64.96582
2023-04-09T09:07:47.238Z,65.612793
2023-04-09T09:08:56.890Z,66.119385
2023-04-09T09:10:06.542Z,65.844727
2023-04-09T09:11:15.237Z,65.740967
2023-04-09T09:12:24.982Z,66.18042
2023-04-09T09:13:32.559Z,66.796875
2023-04-09T09:14:42.224Z,66.766357
2023-04-09T09:15:50.892Z,67.242432
2023-04-09T09:17:00.556Z,67.211914
2023-04-09T09:18:10.223Z,67.382812
2023-04-09T09:19:19.914Z,65.551758
2023-04-09T09:20:29.622Z,65.216064
2023-04-09T09:21:38.335Z,65.692139
2023-04-09T09:22:47.063Z,64.84375
2023-04-09T09:23:57.679Z,63.623047
2023-04-09T09:25:06.379Z,63.116455
2023-04-09T09:26:15.123Z,63.421631
2023-04-09T09:27:24.770Z,62.70752
2023-04-09T09:28:33.420Z,64.263916
2023-04-09T09:29:42.068Z,64.440918
2023-04-09T09:30:50.713Z,63.592529
2023-04-09T09:31:59.371Z,62.780762
2023-04-09T09:33:09.062Z,62.347412
2023-04-09T09:34:18.712Z,62.414551
2023-04-09T09:35:25.390Z,61.401367
2023-04-09T09:36:35.070Z,61.602783
2023-04-09T09:37:43.723Z,61.401367
2023-04-09T09:38:53.748Z,62.139893
2023-04-09T09:40:03.041Z,61.633301
2023-04-09T09:41:12.766Z,62.139893
2023-04-09T09:42:23.459Z,61.810303
2023-04-09T09:43:32.126Z,61.181641
2023-04-09T09:44:40.782Z,62.17041
2023-04-09T09:45:50.486Z,62.042236
2023-04-09T09:46:59.142Z,60.687256
2023-04-09T09:48:07.840Z,60.919189
2023-04-09T09:49:16.454Z,61.529541
2023-04-09T09:50:25.095Z,61.633301
2023-04-09T09:51:34.814Z,62.213135
2023-04-09T09:52:42.510Z,61.981201
2023-04-09T09:53:51.190Z,61.517334
2023-04-09T09:55:00.944Z,61.517334
2023-04-09T09:56:09.577Z,60.369873
2023-04-09T09:57:18.253Z,60.168457
2023-04-09T09:58:26.903Z,59.460449
2023-04-09T09:59:36.644Z,59.259033
2023-04-09T10:00:47.351Z,58.520508
2023-04-09T10:01:56.085Z,59.124756
2023-04-09T10:03:04.755Z,59.124756
2023-04-09T10:04:14.522Z,58.520508
2023-04-09T10:05:23.244Z,58.721924
2023-04-09T10:06:31.941Z,59.051514
2023-04-09T10:07:40.617Z,59.588623
2023-04-09T10:08:50.349Z,60.198975
2023-04-09T10:10:00.176Z,61.212158
2023-04-09T10:11:09.894Z,61.242676
2023-04-09T10:12:18.580Z,61.572266
2023-04-09T10:13:28.244Z,61.37085
2023-04-09T10:14:36.929Z,61.340332
2023-04-09T10:15:45.621Z,60.662842
2023-04-09T10:16:54.302Z,61.645508
2023-04-09T10:18:02.966Z,61.04126
2023-04-09T10:19:12.612Z,61.138916
2023-04-09T10:20:22.287Z,60.968018
2023-04-09T10:21:31.956Z,61.273193
2023-04-09T10:22:40.655Z,61.065674
2023-04-09T10:23:50.388Z,60.455322
2023-04-09T10:24:59.039Z,60.253906
2023-04-09T10:26:08.711Z,60.736084
2023-04-09T10:27:17.692Z,60.430908
2023-04-09T10:28:26.146Z,59.515381
2023-04-09T10:29:35.978Z,60.821533
2023-04-09T10:30:45.714Z,61.633301
2023-04-09T10:31:54.322Z,61.633301
2023-04-09T10:33:04.024Z,61.602783
2023-04-09T10:34:13.636Z,61.401367
2023-04-09T10:35:22.288Z,61.71875
2023-04-09T10:36:30.941Z,62.927246
2023-04-09T10:37:40.627Z,64.807129
2023-04-09T10:38:50.373Z,63.95874
2023-04-09T10:39:58.935Z,63.494873
2023-04-09T10:41:07.593Z,62.854004
2023-04-09T10:42:16.634Z,60.894775
2023-04-09T10:43:26.308Z,60.791016
2023-04-09T10:44:35.942Z,61.065674
2023-04-09T10:45:45.586Z,60.662842
2023-04-09T10:46:54.341Z,60.180664
2023-04-09T10:48:03.986Z,59.906006
2023-04-09T10:49:13.634Z,62.329102
2023-04-09T10:50:24.008Z,62.609863
2023-04-09T10:51:32.984Z,63.085938
2023-04-09T10:52:41.640Z,62.823486
2023-04-09T10:53:51.308Z,61.907959
2023-04-09T10:54:59.951Z,62.414551
2023-04-09T10:56:08.603Z,61.474609
2023-04-09T10:57:18.364Z,61.779785
2023-04-09T10:58:27.945Z,60.180664
2023-04-09T10:59:36.619Z,61.529541
2023-04-09T11:00:46.358Z,61.633301
2023-04-09T11:01:56.146Z,61.907959
2023-04-09T11:03:06.075Z,61.907959
2023-04-09T11:04:13.541Z,62.243652
2023-04-09T11:05:22.265Z,62.518311
2023-04-09T11:06:31.918Z,62.414551
2023-04-09T11:07:40.587Z,62.548828
2023-04-09T11:08:49.261Z,63.287354
2023-04-09T11:09:58.919Z,62.884521
2023-04-09T11:11:07.628Z,62.884521
2023-04-09T11:12:17.367Z,63.262939
2023-04-09T11:13:25.019Z,62.316895
2023-04-09T11:14:33.748Z,62.109375
2023-04-09T11:15:43.485Z,61.065674
2023-04-09T11:16:53.176Z,61.212158
2023-04-09T11:18:02.921Z,60.400391
2023-04-09T11:19:11.613Z,60.168457
2023-04-09T11:20:22.633Z,59.991455
2023-04-09T11:21:33.197Z,60.095215
2023-04-09T11:22:42.556Z,59.765625
2023-04-09T11:23:52.248Z,59.387207
2023-04-09T11:25:01.894Z,60.095215
2023-04-09T11:26:10.546Z,60.809326
2023-04-09T11:27:20.330Z,59.313965
2023-04-09T11:28:30.052Z,60.198975
2023-04-09T11:29:38.681Z,59.283447
2023-04-09T11:30:48.369Z,58.673096
2023-04-09T11:31:58.052Z,59.619141
2023-04-09T11:33:05.727Z,59.033203
2023-04-09T11:34:15.344Z,57.641602
2023-04-09T11:35:25.008Z,58.349609
2023-04-09T11:36:34.644Z,58.453369
2023-04-09T11:37:44.406Z,58.526611
2023-04-09T11:38:53.153Z,58.959961
2023-04-09T11:40:02.720Z,59.570312
2023-04-09T11:41:11.425Z,59.906006
2023-04-09T11:42:20.183Z,59.393311
2023-04-09T11:43:30.025Z,59.906006
2023-04-09T11:44:38.992Z,60.211182
2023-04-09T11:45:47.730Z,60.614014
2023-04-09T11:46:56.451Z,60.076904
2023-04-09T11:48:04.203Z,58.581543
2023-04-09T11:49:13.821Z,57.739258
2023-04-09T11:50:22.515Z,57.537842
2023-04-09T11:51:30.246Z,58.276367
2023-04-09T11:52:39.914Z,58.508301
2023-04-09T11:53:48.562Z,59.320068
2023-04-09T11:54:57.304Z,59.655762
2023-04-09T11:56:05.972Z,59.014893
2023-04-09T11:57:15.628Z,58.532715
2023-04-09T11:58:25.316Z,58.709717
2023-04-09T11:59:33.975Z,59.118652
2023-04-09T12:00:41.666Z,58.972168
2023-04-09T12:01:51.500Z,60.192871
2023-04-09T12:03:00.278Z,60.266113
2023-04-09T12:04:08.856Z,60.467529
2023-04-09T12:05:17.441Z,58.917236
2023-04-09T12:06:27.066Z,59.832764
2023-04-09T12:07:36.739Z,59.527588
2023-04-09T12:08:47.404Z,60.107422
2023-04-09T12:09:55.066Z,59.191895
2023-04-09T12:11:04.725Z,59.625244
2023-04-09T12:12:13.375Z,59.960938
2023-04-09T12:13:23.039Z,59.93042
2023-04-09T12:14:31.709Z,60.845947
2023-04-09T12:15:40.364Z,60.339355
2023-04-09T12:16:50.140Z,60.949707
2023-04-09T12:17:57.861Z,60.980225
2023-04-09T12:19:05.503Z,60.772705
2023-04-09T12:20:14.114Z,61.193848
2023-04-09T12:21:22.780Z,62.548828
2023-04-09T12:22:32.450Z,62.298584
2023-04-09T12:23:42.140Z,63.189697
2023-04-09T12:24:49.802Z,63.366699
2023-04-09T12:25:57.442Z,63.134766
2023-04-09T12:27:07.099Z,62.872314
2023-04-09T12:28:16.792Z,61.340332
2023-04-09T12:29:26.458Z,61.676025
2023-04-09T12:30:35.107Z,61.82251
2023-04-09T12:31:44.781Z,61.309814
2023-04-09T12:32:54.451Z,61.895752
2023-04-09T12:34:04.135Z,61.761475
2023-04-09T12:35:11.813Z,61.328125
2023-04-09T12:36:21.443Z,60.662842
2023-04-09T12:37:30.096Z,59.692383
2023-04-09T12:38:39.790Z,58.81958
2023-04-09T12:39:48.442Z,56.689453
2023-04-09T12:40:57.122Z,55.651855
2023-04-09T12:42:06.816Z,56.134033
2023-04-09T12:43:15.521Z,55.426025
2023-04-09T12:44:24.175Z,55.627441
2023-04-09T12:45:33.831Z,55.316162
2023-04-09T12:46:42.471Z,53.320312
2023-04-09T12:47:51.161Z,54.46167
2023-04-09T12:48:59.834Z,56.439209
2023-04-09T12:50:09.475Z,56.793213
2023-04-09T12:51:19.165Z,57.501221
2023-04-09T12:52:27.808Z,57.098389
2023-04-09T12:53:36.531Z,56.793213
2023-04-09T12:54:47.031Z,57.403564
2023-04-09T12:55:54.759Z,57.458496
2023-04-09T12:57:03.412Z,58.776855
2023-04-09T12:58:12.062Z,59.411621
2023-04-09T12:59:20.739Z,59.210205
2023-04-09T13:00:30.401Z,59.820557
2023-04-09T13:01:40.737Z,59.442139
2023-04-09T13:02:47.857Z,60.430908
2023-04-09T13:03:57.889Z,60.760498
2023-04-09T13:05:05.999Z,60.760498
2023-04-09T13:06:14.654Z,61.37085
2023-04-09T13:07:24.435Z,60.284424
2023-04-09T13:08:34.072Z,60.38208
2023-04-09T13:09:43.727Z,60.412598